Time;durP1;ratioP1;P1;durP2;ratioP2;P2;SDS_P1;SDS_P2;PMS_P1;PMS_P2;Temp;Humidity;BMP_temperature;BMP_pressure;BME280_temperature;BME280_humidity;BME280_pressure;Samples;Min_cycle;Max_cycle;Signal;HPM_P1;HPM_P2
2021/11/23 00:01:44;;;;;;;11.90;7.90;;;;;;;-1.58;100.00;97141.59;5007889;28;20464;-75
2021/11/23 00:04:10;;;;;;;11.37;7.87;;;;;;;-1.63;100.00;97141.78;5014584;28;20205;-75
2021/11/23 00:06:37;;;;;;;13.40;8.73;;;;;;;-1.62;100.00;97134.88;5021036;28;20041;-74
2021/11/23 00:09:03;;;;;;;13.20;9.37;;;;;;;-1.59;100.00;97137.34;5037334;28;20029;-75
2021/11/23 00:11:29;;;;;;;12.60;8.97;;;;;;;-1.59;100.00;97137.34;5019519;28;20489;-78
2021/11/23 00:13:55;;;;;;;14.20;8.57;;;;;;;-1.63;100.00;97135.78;5043628;28;20543;-75
2021/11/23 00:16:21;;;;;;;12.47;8.60;;;;;;;-1.66;100.00;97137.59;4990290;28;20463;-74
2021/11/23 00:18:47;;;;;;;12.23;8.53;;;;;;;-1.68;100.00;97139.41;5017822;28;20101;-75
2021/11/23 00:21:14;;;;;;;13.70;9.40;;;;;;;-1.64;100.00;97141.81;5011088;28;20596;-75
2021/11/23 00:23:40;;;;;;;13.90;8.97;;;;;;;-1.67;100.00;97143.66;5008213;28;20460;-75
2021/11/23 00:26:05;;;;;;;12.90;8.50;;;;;;;-1.68;100.00;97138.53;5015785;28;20454;-75
2021/11/23 00:28:32;;;;;;;14.67;8.83;;;;;;;-1.64;100.00;97134.09;5023520;28;20449;-75
2021/11/23 00:30:58;;;;;;;13.60;8.97;;;;;;;-1.67;100.00;97146.22;4991740;28;20076;-74
2021/11/23 00:33:24;;;;;;;12.97;9.10;;;;;;;-1.66;100.00;97137.59;5028738;28;20487;-74
2021/11/23 00:35:51;;;;;;;12.33;8.47;;;;;;;-1.76;100.00;97138.84;5030629;28;20479;-74
2021/11/23 00:38:17;;;;;;;15.30;9.70;;;;;;;-1.80;100.00;97139.88;5041852;28;20447;-75
2021/11/23 00:40:44;;;;;;;13.47;8.67;;;;;;;-1.80;100.00;97142.47;5019276;28;20801;-74
2021/11/23 00:43:10;;;;;;;12.17;9.40;;;;;;;-1.76;100.00;97146.59;5003724;28;20013;-76
2021/11/23 00:45:37;;;;;;;14.60;8.90;;;;;;;-1.81;100.00;97152.81;5020462;28;20436;-75
2021/11/23 00:48:04;;;;;;;12.80;8.30;;;;;;;-1.84;100.00;97150.41;5018239;28;20486;-74
2021/11/23 00:50:30;;;;;;;11.87;8.60;;;;;;;-1.95;100.00;97149.06;5020906;28;20047;-75
2021/11/23 00:52:56;;;;;;;13.70;9.07;;;;;;;-1.97;100.00;97147.44;5017939;28;20467;-74
2021/11/23 00:55:22;;;;;;;14.03;9.33;;;;;;;-1.99;100.00;97146.66;5019149;28;20849;-74
2021/11/23 00:57:48;;;;;;;11.77;8.13;;;;;;;-1.98;100.00;97151.78;5008859;28;20043;-74
2021/11/23 01:00:14;;;;;;;13.20;8.47;;;;;;;-1.94;100.00;97152.50;5020128;28;20056;-75
2021/11/23 01:02:41;;;;;;;13.27;8.20;;;;;;;-1.99;100.00;97151.81;5023817;28;20651;-74
2021/11/23 01:05:07;;;;;;;13.80;9.13;;;;;;;-2.03;100.00;97160.56;5032270;28;20525;-74
2021/11/23 01:07:33;;;;;;;12.80;9.17;;;;;;;-2.02;100.00;97157.09;5040741;28;20448;-74
2021/11/23 01:09:59;;;;;;;13.23;8.57;;;;;;;-2.04;100.00;97149.44;5022268;28;20464;-75
2021/11/23 01:12:26;;;;;;;13.17;9.23;;;;;;;-2.08;100.00;97152.16;5039739;28;20409;-75
2021/11/23 01:14:52;;;;;;;13.97;9.00;;;;;;;-2.18;100.00;97155.13;5030246;28;21043;-75
2021/11/23 01:17:18;;;;;;;13.77;9.43;;;;;;;-2.23;100.00;97163.91;4986829;28;20449;-74
2021/11/23 01:19:44;;;;;;;13.23;9.67;;;;;;;-2.26;100.00;97164.88;5021452;28;20039;-74
2021/11/23 01:22:10;;;;;;;13.87;9.93;;;;;;;-2.25;100.00;97156.22;5014052;28;20056;-74
2021/11/23 01:24:37;;;;;;;12.93;8.90;;;;;;;-2.32;100.00;97159.94;5024828;28;20447;-75
2021/11/23 01:27:03;;;;;;;14.33;9.40;;;;;;;-2.28;100.00;97163.22;5036893;28;20991;-75
2021/11/23 01:29:28;;;;;;;14.33;9.60;;;;;;;-2.29;100.00;97157.25;5046378;28;20460;-75
2021/11/23 01:31:54;;;;;;;13.13;8.97;;;;;;;-2.32;100.00;97157.34;5042549;28;20088;-75
2021/11/23 01:34:20;;;;;;;14.23;8.80;;;;;;;-2.32;100.00;97156.53;5025518;28;20394;-75
2021/11/23 01:36:47;;;;;;;13.90;9.10;;;;;;;-2.31;100.00;97164.22;5007991;28;20032;-74
2021/11/23 01:39:13;;;;;;;13.43;9.27;;;;;;;-2.33;100.00;97167.72;5013705;28;20464;-74
2021/11/23 01:41:39;;;;;;;12.77;8.90;;;;;;;-2.38;100.00;97163.59;5031912;28;20567;-75
2021/11/23 01:44:05;;;;;;;12.13;8.07;;;;;;;-2.35;100.00;97166.94;5011226;28;20495;-75
2021/11/23 01:46:31;;;;;;;13.23;9.00;;;;;;;-2.39;100.00;97154.16;4978577;28;20037;-74
2021/11/23 01:48:57;;;;;;;13.77;9.20;;;;;;;-2.31;100.00;97159.06;5021727;28;20428;-75
2021/11/23 01:51:23;;;;;;;14.23;9.83;;;;;;;-2.41;100.00;97143.09;5004587;28;20558;-74
2021/11/23 01:53:49;;;;;;;14.70;9.70;;;;;;;-2.40;100.00;97154.25;5005950;28;20444;-74
2021/11/23 01:56:15;;;;;;;18.37;9.73;;;;;;;-2.44;100.00;97153.53;5022314;28;20121;-75
2021/11/23 01:58:41;;;;;;;14.83;10.07;;;;;;;-2.42;100.00;97156.03;5038615;28;20533;-74
2021/11/23 02:01:07;;;;;;;13.83;10.00;;;;;;;-2.45;100.00;97157.00;5008431;28;20033;-74
2021/11/23 02:03:38;;;;;;;12.97;9.20;;;;;;;-2.49;100.00;97160.56;5015835;28;20455;-74
2021/11/23 02:06:04;;;;;;;14.40;10.60;;;;;;;-2.49;100.00;97149.44;5012423;28;20475;-75
2021/11/23 02:08:30;;;;;;;16.03;9.93;;;;;;;-2.51;100.00;97158.97;5021661;28;20451;-75
2021/11/23 02:10:56;;;;;;;14.43;10.47;;;;;;;-2.48;100.00;97154.53;5025347;28;20463;-75
2021/11/23 02:13:22;;;;;;;15.60;9.93;;;;;;;-2.53;100.00;97164.16;5024638;28;20036;-74
2021/11/23 02:15:49;;;;;;;17.43;10.97;;;;;;;-2.51;100.00;97169.28;5022270;28;20476;-73
2021/11/23 02:18:21;;;;;;;13.77;9.17;;;;;;;-2.56;100.00;97164.25;5021463;28;20427;-75
2021/11/23 02:20:48;;;;;;;14.13;9.48;;;;;;;-2.57;100.00;97161.75;5013257;28;20468;-74
2021/11/23 02:23:14;;;;;;;15.57;9.53;;;;;;;-2.58;100.00;97160.94;5020807;28;20025;-75
2021/11/23 02:25:40;;;;;;;14.30;9.07;;;;;;;-2.59;100.00;97172.09;5045948;28;20484;-74
2021/11/23 02:28:08;;;;;;;14.17;9.57;;;;;;;-2.62;100.00;97167.94;5027792;28;20502;-74
2021/11/23 02:30:42;;;;;;;14.97;10.93;;;;;;;-2.60;100.00;97165.28;5047073;28;20455;-75
2021/11/23 02:33:08;;;;;;;14.30;9.25;;;;;;;-2.62;100.00;97164.47;5004981;28;21083;-74
2021/11/23 02:35:33;;;;;;;14.30;10.00;;;;;;;-2.55;100.00;97165.09;5030076;28;20037;-75
2021/11/23 02:37:59;;;;;;;13.00;8.87;;;;;;;-2.57;100.00;97164.34;5024011;28;20025;-74
2021/11/23 02:40:25;;;;;;;16.80;10.00;;;;;;;-2.54;100.00;97165.06;5025104;28;20038;-75
2021/11/23 02:42:52;;;;;;;14.87;10.07;;;;;;;-2.51;100.00;97161.53;5020683;28;20466;-75
2021/11/23 02:45:24;;;;;;;13.23;9.87;;;;;;;-2.49;100.00;97162.31;5039584;28;20474;-75
2021/11/23 02:47:51;;;;;;;15.63;10.10;;;;;;;-2.49;100.00;97160.56;5021395;28;20454;-74
2021/11/23 02:50:17;;;;;;;16.60;10.20;;;;;;;-2.53;100.00;97161.59;5012257;28;20503;-74
2021/11/23 02:52:48;;;;;;;19.73;12.67;;;;;;;-2.56;100.00;97160.84;5021852;28;20478;-74
2021/11/23 02:55:15;;;;;;;14.40;9.57;;;;;;;-2.61;100.00;97156.72;5035949;28;21048;-75
2021/11/23 02:57:41;;;;;;;15.87;10.10;;;;;;;-2.66;100.00;97163.75;5026353;28;20969;-74
2021/11/23 03:00:19;;;;;;;14.47;10.43;;;;;;;-2.66;100.00;97157.78;5008708;28;20471;-74
2021/11/23 03:02:47;;;;;;;17.17;10.63;;;;;;;-2.66;100.00;97153.47;4993976;28;20510;-74
2021/11/23 03:05:15;;;;;;;15.93;10.17;;;;;;;-2.69;100.00;97151.00;5006598;28;21004;-75
2021/11/23 03:07:41;;;;;;;14.43;10.17;;;;;;;-2.66;100.00;97161.19;5028259;28;20455;-75
2021/11/23 03:10:09;;;;;;;12.47;8.87;;;;;;;-2.76;100.00;97153.84;5020086;28;20487;-74
2021/11/23 03:12:36;;;;;;;13.07;9.00;;;;;;;-2.77;100.00;97160.75;5027686;28;20503;-75
2021/11/23 03:15:03;;;;;;;13.23;9.13;;;;;;;-2.79;100.00;97154.78;5012949;28;20463;-74
2021/11/23 03:17:29;;;;;;;13.47;9.43;;;;;;;-2.76;100.00;97156.44;5004262;28;20460;-74
2021/11/23 03:19:54;;;;;;;14.43;9.80;;;;;;;-2.85;100.00;97148.16;5030872;28;20454;-74
2021/11/23 03:22:20;;;;;;;14.63;9.20;;;;;;;-2.87;100.00;97155.06;5042335;28;20599;-74
2021/11/23 03:24:46;;;;;;;16.07;10.40;;;;;;;-2.82;100.00;97160.06;5022293;28;20025;-74
2021/11/23 03:27:13;;;;;;;14.57;9.40;;;;;;;-2.85;100.00;97157.59;5041793;28;20535;-75
2021/11/23 03:29:40;;;;;;;14.87;9.63;;;;;;;-2.83;100.00;97152.41;4997134;28;20435;-74
2021/11/23 03:32:07;;;;;;;13.70;9.13;;;;;;;-2.86;100.00;97145.63;4987756;28;20841;-74
2021/11/23 03:34:37;;;;;;;15.50;10.13;;;;;;;-2.89;100.00;97156.84;5019269;28;20505;-74
2021/11/23 03:37:08;;;;;;;17.00;10.03;;;;;;;-2.87;100.00;97154.25;5040448;28;20975;-74
2021/11/23 03:39:36;;;;;;;16.30;9.50;;;;;;;-2.87;100.00;97152.50;5011662;28;21067;-75
2021/11/23 03:42:02;;;;;;;14.83;9.93;;;;;;;-2.90;100.00;97149.19;5011147;28;20606;-74
2021/11/23 03:44:28;;;;;;;16.20;10.00;;;;;;;-2.93;100.00;97152.72;5019148;28;20463;-74
2021/11/23 03:46:54;;;;;;;15.50;10.73;;;;;;;-2.93;100.00;97151.88;5014862;28;20444;-74
2021/11/23 03:49:20;;;;;;;15.20;9.93;;;;;;;-2.97;100.00;97147.75;5018134;28;20040;-74
2021/11/23 03:51:46;;;;;;;14.27;9.57;;;;;;;-2.98;100.00;97146.06;5031158;28;20037;-74
2021/11/23 03:54:12;;;;;;;14.73;9.90;;;;;;;-3.03;100.00;97153.09;5042798;28;20431;-74
2021/11/23 03:56:39;;;;;;;16.90;11.07;;;;;;;-3.04;100.00;97154.84;5002893;28;20060;-74
2021/11/23 03:59:05;;;;;;;15.40;10.73;;;;;;;-3.08;100.00;97158.41;5011413;28;20079;-74
2021/11/23 04:01:31;;;;;;;16.33;11.43;;;;;;;-3.14;100.00;97151.75;5019527;28;20467;-74
2021/11/23 04:03:56;;;;;;;16.13;11.10;;;;;;;-3.15;100.00;97154.38;5028502;28;20052;-75
2021/11/23 04:06:22;;;;;;;18.40;11.03;;;;;;;-3.16;100.00;97160.41;5029027;28;20091;-74
2021/11/23 04:08:48;;;;;;;16.97;11.17;;;;;;;-3.18;100.00;97165.59;5010073;28;20052;-75
2021/11/23 04:11:13;;;;;;;14.20;9.80;;;;;;;-3.24;100.00;97159.84;5019373;28;20029;-74
2021/11/23 04:13:40;;;;;;;15.83;10.70;;;;;;;-3.29;100.00;97166.84;5040712;28;20127;-74
2021/11/23 04:16:06;;;;;;;14.93;10.07;;;;;;;-3.32;100.00;97165.22;5034900;28;20029;-74
2021/11/23 04:18:32;;;;;;;18.47;10.10;;;;;;;-3.31;100.00;97166.91;5054478;28;20987;-75
2021/11/23 04:20:58;;;;;;;18.20;10.63;;;;;;;-3.34;100.00;97175.56;5037572;28;20029;-74
2021/11/23 04:23:23;;;;;;;14.57;10.23;;;;;;;-3.32;100.00;97170.34;5019771;28;20029;-74
2021/11/23 04:25:49;;;;;;;14.70;10.10;;;;;;;-3.31;100.00;97174.63;5025974;28;20033;-75
2021/11/23 04:28:15;;;;;;;20.37;10.30;;;;;;;-3.34;100.00;97172.16;5044991;28;20017;-74
2021/11/23 04:30:40;;;;;;;14.83;10.10;;;;;;;-3.37;100.00;97170.53;5018596;28;20437;-74
2021/11/23 04:33:06;;;;;;;14.77;10.20;;;;;;;-3.38;100.00;97175.72;5005479;28;20543;-74
2021/11/23 04:35:32;;;;;;;14.83;10.27;;;;;;;-3.37;100.00;97173.09;5007189;28;20025;-74
2021/11/23 04:37:58;;;;;;;17.37;10.63;;;;;;;-3.43;100.00;97177.59;4995841;28;20024;-74
2021/11/23 04:40:24;;;;;;;22.27;14.03;;;;;;;-3.42;100.00;97176.69;5027842;28;20483;-74
2021/11/23 04:42:49;;;;;;;30.20;18.27;;;;;;;-3.42;100.00;97176.69;5036737;28;20045;-74
2021/11/23 04:45:15;;;;;;;16.27;11.43;;;;;;;-3.41;100.00;97178.41;5006391;28;20109;-75
2021/11/23 04:47:42;;;;;;;14.37;10.17;;;;;;;-3.39;100.00;97179.16;5042330;28;20108;-74
2021/11/23 04:50:10;;;;;;;19.40;10.07;;;;;;;-3.41;100.00;97179.22;5014853;28;20602;-74
2021/11/23 04:52:36;;;;;;;15.47;11.00;;;;;;;-3.40;100.00;97187.78;5041566;28;20840;-73
2021/11/23 04:55:02;;;;;;;18.13;10.77;;;;;;;-3.41;100.00;97186.94;5025660;28;20475;-75
2021/11/23 04:57:28;;;;;;;18.17;11.83;;;;;;;-3.44;100.00;97189.63;5027144;28;20455;-75
2021/11/23 04:59:54;;;;;;;15.50;10.57;;;;;;;-3.46;100.00;97187.97;5029779;28;20505;-75
2021/11/23 05:02:19;;;;;;;20.27;12.93;;;;;;;-3.47;100.00;97194.03;5033179;28;20029;-74
2021/11/23 05:04:46;;;;;;;20.43;13.33;;;;;;;-3.47;100.00;97199.16;5032274;28;20057;-75
2021/11/23 05:07:12;;;;;;;19.33;12.10;;;;;;;-3.50;100.00;97196.69;5029140;28;20113;-74
2021/11/23 05:09:38;;;;;;;16.73;11.47;;;;;;;-3.51;100.00;97200.16;5043529;28;20828;-74
2021/11/23 05:12:04;;;;;;;18.53;10.93;;;;;;;-3.54;100.00;97203.66;5048092;28;20025;-74
2021/11/23 05:14:30;;;;;;;15.90;10.70;;;;;;;-3.48;100.00;97200.91;5022653;28;20032;-75
2021/11/23 05:16:55;;;;;;;21.13;13.00;;;;;;;-3.47;100.00;97201.75;5010149;28;20462;-74
2021/11/23 05:19:21;;;;;;;16.33;10.77;;;;;;;-3.51;100.00;97195.84;5018972;28;20032;-75
2021/11/23 05:21:47;;;;;;;20.97;11.90;;;;;;;-3.54;100.00;97205.41;5012419;28;20037;-74
2021/11/23 05:24:14;;;;;;;17.10;11.13;;;;;;;-3.48;100.00;97206.03;5020351;28;20036;-74
2021/11/23 05:26:40;;;;;;;17.90;12.07;;;;;;;-3.43;100.00;97199.00;5024038;28;20120;-74
2021/11/23 05:29:06;;;;;;;16.73;11.90;;;;;;;-3.49;100.00;97201.78;5027337;28;20944;-75
2021/11/23 05:31:32;;;;;;;19.37;11.37;;;;;;;-3.46;100.00;97198.28;5016444;28;20503;-74
2021/11/23 05:33:58;;;;;;;21.10;12.63;;;;;;;-3.39;100.00;97197.16;5001971;28;20546;-75
2021/11/23 05:36:24;;;;;;;18.30;11.77;;;;;;;-3.39;100.00;97202.31;5017839;28;20572;-73
2021/11/23 05:38:50;;;;;;;20.20;12.60;;;;;;;-3.37;100.00;97201.38;5015958;28;20539;-74
2021/11/23 05:41:16;;;;;;;19.27;12.43;;;;;;;-3.45;100.00;97199.97;5016566;28;20064;-74
2021/11/23 05:43:44;;;;;;;15.97;12.07;;;;;;;-3.40;100.00;97198.06;5049737;28;20112;-72
2021/11/23 05:46:10;;;;;;;18.33;11.97;;;;;;;-3.43;100.00;97195.59;5008765;28;20029;-74
2021/11/23 05:48:36;;;;;;;17.47;12.00;;;;;;;-3.43;100.00;97187.88;5000597;28;20519;-74
2021/11/23 05:51:05;;;;;;;16.17;10.07;;;;;;;-3.42;100.00;97202.41;5010615;28;20482;-73
2021/11/23 05:53:33;;;;;;;20.20;12.20;;;;;;;-3.45;100.00;97192.25;5039684;28;20459;-73
2021/11/23 05:55:58;;;;;;;20.57;14.97;;;;;;;-3.46;100.00;97193.13;5001754;28;20460;-74
2021/11/23 05:58:24;;;;;;;28.07;17.07;;;;;;;-3.54;100.00;97205.41;5003660;28;20643;-75
2021/11/23 06:00:50;;;;;;;18.47;12.83;;;;;;;-3.54;100.00;97207.97;5014784;28;20565;-74
2021/11/23 06:03:16;;;;;;;20.07;12.00;;;;;;;-3.67;100.00;97200.66;5032024;28;20027;-74
2021/11/23 06:05:42;;;;;;;17.67;11.37;;;;;;;-3.60;100.00;97209.00;5014493;28;20464;-74
2021/11/23 06:08:07;;;;;;;15.40;10.70;;;;;;;-3.60;100.00;97198.72;5024061;28;20107;-74
2021/11/23 06:10:33;;;;;;;16.20;10.97;;;;;;;-3.58;100.00;97208.06;5024001;28;20052;-74
2021/11/23 06:12:59;;;;;;;17.80;11.50;;;;;;;-3.61;100.00;97213.31;5020380;28;20033;-73
2021/11/23 06:15:28;;;;;;;18.23;12.13;;;;;;;-3.53;100.00;97212.22;5003999;28;20028;-74
2021/11/23 06:18:02;;;;;;;18.73;11.17;;;;;;;-3.63;100.00;97211.66;5006774;28;20457;-74
2021/11/23 06:20:29;;;;;;;16.42;11.10;;;;;;;-3.71;100.00;97203.38;5014474;28;20826;-73
2021/11/23 06:22:56;;;;;;;17.40;11.60;;;;;;;-3.70;100.00;97211.00;5020038;28;20526;-74
2021/11/23 06:25:22;;;;;;;21.53;14.47;;;;;;;-3.68;100.00;97216.97;5038169;28;20456;-73
2021/11/23 06:27:48;;;;;;;19.97;12.23;;;;;;;-3.68;100.00;97222.09;5020579;28;20460;-74
2021/11/23 06:30:14;;;;;;;18.30;12.30;;;;;;;-3.70;100.00;97226.44;5016469;28;20045;-74
2021/11/23 06:32:40;;;;;;;19.63;12.97;;;;;;;-3.71;100.00;97224.78;5031138;28;20094;-73
2021/11/23 06:35:06;;;;;;;23.57;13.47;;;;;;;-3.75;100.00;97230.91;5002220;28;20472;-74
2021/11/23 06:37:32;;;;;;;19.93;12.70;;;;;;;-3.82;100.00;97237.97;5020369;28;20044;-74
2021/11/23 06:39:57;;;;;;;26.83;17.87;;;;;;;-3.81;100.00;97244.78;5019129;28;20024;-74
2021/11/23 06:42:23;;;;;;;41.90;27.37;;;;;;;-3.83;100.00;97245.69;5023527;28;20037;-73
2021/11/23 06:44:49;;;;;;;56.63;38.37;;;;;;;-3.81;100.00;97254.22;5015287;28;20032;-74
2021/11/23 06:47:15;;;;;;;30.87;22.17;;;;;;;-3.79;100.00;97255.00;5026531;28;20040;-74
2021/11/23 06:49:41;;;;;;;26.03;18.07;;;;;;;-3.79;100.00;97260.13;5039750;28;20390;-74
2021/11/23 06:52:06;;;;;;;35.50;24.00;;;;;;;-3.78;100.00;97269.53;5027432;28;20043;-74
2021/11/23 06:54:32;;;;;;;21.97;14.47;;;;;;;-3.84;100.00;97268.00;5046482;28;20013;-73
2021/11/23 06:56:58;;;;;;;25.97;15.80;;;;;;;-3.82;100.00;97268.78;5017126;28;20489;-74
2021/11/23 06:59:23;;;;;;;21.60;14.43;;;;;;;-3.80;100.00;97269.56;5019713;28;20611;-74
2021/11/23 07:01:50;;;;;;;19.03;12.90;;;;;;;-3.75;100.00;97272.03;5014609;28;20538;-73
2021/11/23 07:04:16;;;;;;;17.90;12.53;;;;;;;-3.77;100.00;97280.66;5029542;28;20026;-74
2021/11/23 07:06:44;;;;;;;17.90;12.53;;;;;;;-3.73;100.00;97277.94;5028534;28;20462;-73
2021/11/23 07:09:16;;;;;;;19.90;13.33;;;;;;;-3.68;100.00;97280.41;5059768;28;20713;-74
2021/11/23 07:11:42;;;;;;;20.33;13.40;;;;;;;-3.70;100.00;97280.41;5064505;28;20472;-74
2021/11/23 07:14:08;;;;;;;21.10;14.67;;;;;;;-3.64;100.00;97285.38;5068903;28;20075;-74
2021/11/23 07:16:34;;;;;;;19.73;13.60;;;;;;;-3.64;100.00;97292.25;5055945;28;20635;-75
2021/11/23 07:19:01;;;;;;;21.93;14.30;;;;;;;-3.61;100.00;97290.44;5052977;28;20460;-74
2021/11/23 07:21:27;;;;;;;22.50;14.70;;;;;;;-3.53;100.00;97287.63;5060979;28;21341;-74
2021/11/23 07:23:53;;;;;;;21.60;14.57;;;;;;;-3.44;100.00;97291.66;5038708;28;20534;-74
2021/11/23 07:26:19;;;;;;;21.73;14.20;;;;;;;-3.50;100.00;97304.69;5057339;28;20550;-73
2021/11/23 07:28:45;;;;;;;22.07;13.97;;;;;;;-3.48;100.00;97306.34;5055257;28;20066;-74
2021/11/23 07:31:10;;;;;;;23.07;13.83;;;;;;;-3.39;100.00;97298.31;5040368;28;20040;-74
2021/11/23 07:33:36;;;;;;;19.20;13.10;;;;;;;-3.36;100.00;97299.94;5044707;28;20032;-74
2021/11/23 07:36:02;;;;;;;22.47;14.30;;;;;;;-3.24;100.00;97299.56;5060981;28;20033;-74
2021/11/23 07:38:28;;;;;;;19.97;13.73;;;;;;;-3.15;100.00;97295.88;5043515;28;20123;-74
2021/11/23 07:40:53;;;;;;;19.27;11.93;;;;;;;-2.99;100.00;97296.19;5056428;28;20025;-74
2021/11/23 07:43:19;;;;;;;23.63;15.13;;;;;;;-2.72;100.00;97300.44;5052200;28;20087;-75
2021/11/23 07:45:45;;;;;;;20.67;13.03;;;;;;;-2.48;100.00;97305.63;5054509;28;20494;-75
2021/11/23 07:48:11;;;;;;;21.27;13.97;;;;;;;-2.14;100.00;97310.47;5035780;28;20041;-75
2021/11/23 07:50:38;;;;;;;18.63;11.90;;;;;;;-1.73;100.00;97297.78;5048559;28;20079;-74
2021/11/23 07:53:04;;;;;;;19.10;11.73;;;;;;;-1.43;100.00;97298.34;5052861;28;20456;-74
2021/11/23 07:55:30;;;;;;;18.37;11.77;;;;;;;-0.98;100.00;97306.00;5051986;28;20462;-74
2021/11/23 07:57:55;;;;;;;14.03;10.00;;;;;;;-0.83;100.00;97301.97;5048509;28;20437;-74
2021/11/23 08:00:26;;;;;;;13.40;9.50;;;;;;;-0.73;100.00;97305.84;5043744;28;20029;-75
2021/11/23 08:02:51;;;;;;;13.70;9.33;;;;;;;-0.42;100.00;97301.13;5042034;28;20508;-75
2021/11/23 08:05:17;;;;;;;14.37;9.77;;;;;;;-0.10;100.00;97308.34;5043082;28;20464;-75
2021/11/23 08:07:44;;;;;;;16.97;10.00;;;;;;;0.08;100.00;97301.50;5059688;28;20658;-75
2021/11/23 08:10:09;;;;;;;16.57;10.67;;;;;;;0.18;100.00;97301.94;5043176;28;20463;-74
2021/11/23 08:12:35;;;;;;;14.73;10.70;;;;;;;0.47;100.00;97311.78;5057546;28;21037;-75
2021/11/23 08:15:01;;;;;;;12.73;9.40;;;;;;;1.26;100.00;97295.09;5050777;28;20029;-75
2021/11/23 08:17:27;;;;;;;12.53;9.23;;;;;;;0.83;100.00;97295.44;5042597;28;20557;-75
2021/11/23 08:19:52;;;;;;;13.30;9.63;;;;;;;0.65;100.00;97302.31;5012143;28;20445;-75
2021/11/23 08:22:18;;;;;;;16.33;10.00;;;;;;;1.06;100.00;97296.06;5041596;28;20512;-75
2021/11/23 08:24:44;;;;;;;14.53;9.33;;;;;;;0.72;100.00;97305.47;5020947;28;20033;-75
2021/11/23 08:27:10;;;;;;;11.83;8.50;;;;;;;0.77;100.00;97305.22;5036439;28;20262;-75
2021/11/23 08:29:36;;;;;;;13.37;9.27;;;;;;;1.18;100.00;97298.91;5034311;28;20694;-75
2021/11/23 08:32:03;;;;;;;12.60;8.40;;;;;;;1.41;100.00;97294.34;5034117;28;20483;-75
2021/11/23 08:34:29;;;;;;;14.73;9.23;;;;;;;1.79;100.00;97292.38;5038279;28;20047;-74
2021/11/23 08:36:55;;;;;;;12.67;8.27;;;;;;;1.42;99.92;97296.03;5029442;28;20456;-75
2021/11/23 08:39:21;;;;;;;12.77;8.30;;;;;;;1.73;99.56;97295.28;5038869;28;20025;-75
2021/11/23 08:41:47;;;;;;;11.67;8.80;;;;;;;1.32;99.47;97293.03;5038310;28;20039;-75
2021/11/23 08:44:15;;;;;;;13.23;9.37;;;;;;;1.33;99.01;97299.91;5021134;28;20025;-74
2021/11/23 08:46:41;;;;;;;13.63;9.10;;;;;;;2.36;97.57;97282.44;5018187;28;20056;-75
2021/11/23 08:49:07;;;;;;;11.40;8.30;;;;;;;2.40;97.70;97290.91;5024916;28;20045;-75
2021/11/23 08:51:36;;;;;;;11.80;7.77;;;;;;;2.01;93.49;97297.31;5049332;28;20525;-75
2021/11/23 08:54:04;;;;;;;9.87;6.47;;;;;;;1.94;96.59;97300.28;5040594;28;20098;-75
2021/11/23 08:56:35;;;;;;;11.53;7.30;;;;;;;2.11;96.18;97305.44;5044169;28;20072;-75
2021/11/23 08:59:03;;;;;;;9.43;6.27;;;;;;;2.13;96.23;97294.06;5030967;28;20026;-75
2021/11/23 09:01:29;;;;;;;10.03;7.10;;;;;;;1.87;97.16;97295.41;5020869;28;20501;-75
2021/11/23 09:03:55;;;;;;;10.83;7.90;;;;;;;1.63;97.08;97301.88;5026033;28;20058;-74
2021/11/23 09:06:24;;;;;;;9.73;6.43;;;;;;;2.38;96.64;97299.69;5038422;28;20021;-75
2021/11/23 09:08:54;;;;;;;10.07;7.37;;;;;;;2.80;96.17;97302.53;5040925;28;20105;-75
2021/11/23 09:11:21;;;;;;;9.93;6.70;;;;;;;2.25;94.38;97302.13;5024342;28;20044;-75
2021/11/23 09:13:47;;;;;;;8.80;6.67;;;;;;;2.49;95.72;97306.00;5031507;28;20504;-75
2021/11/23 09:16:12;;;;;;;9.20;6.57;;;;;;;2.57;94.05;97305.56;5027720;28;20030;-74
2021/11/23 09:18:38;;;;;;;10.47;6.57;;;;;;;2.73;92.61;97302.97;5028003;28;20029;-75
2021/11/23 09:21:04;;;;;;;11.17;6.70;;;;;;;2.47;92.57;97307.00;5033668;28;20475;-75
2021/11/23 09:23:29;;;;;;;10.50;6.40;;;;;;;3.13;90.83;97311.16;5031857;28;20051;-75
2021/11/23 09:25:55;;;;;;;9.37;6.67;;;;;;;3.10;91.19;97306.94;5039945;28;20025;-75
2021/11/23 09:28:21;;;;;;;10.37;6.70;;;;;;;3.23;91.47;97300.13;5050343;28;20098;-75
2021/11/23 09:30:46;;;;;;;11.17;6.20;;;;;;;3.56;89.93;97309.53;5056823;28;20024;-74
2021/11/23 09:33:14;;;;;;;8.27;5.67;;;;;;;3.64;88.20;97309.06;5062949;28;20009;-75
2021/11/23 09:35:40;;;;;;;9.33;5.73;;;;;;;3.21;87.60;97309.78;5030368;28;20061;-75
2021/11/23 09:38:06;;;;;;;9.20;6.07;;;;;;;3.35;90.45;97310.75;5020693;28;20060;-75
2021/11/23 09:40:32;;;;;;;9.20;6.27;;;;;;;3.13;90.83;97316.34;5037350;28;20557;-75
2021/11/23 09:42:59;;;;;;;9.23;6.70;;;;;;;3.55;90.90;97310.44;5020285;28;20560;-75
2021/11/23 09:45:24;;;;;;;8.43;5.77;;;;;;;3.20;88.67;97310.69;5017381;28;20034;-75
2021/11/23 09:47:51;;;;;;;8.93;5.80;;;;;;;2.80;91.57;97314.69;5040017;28;20509;-75
2021/11/23 09:50:17;;;;;;;7.73;5.60;;;;;;;3.09;92.64;97305.28;5049645;28;20036;-75
2021/11/23 09:52:43;;;;;;;9.73;6.20;;;;;;;3.43;90.16;97304.19;5046422;28;20037;-75
2021/11/23 09:55:11;;;;;;;10.37;6.90;;;;;;;3.29;91.89;97298.94;5033802;28;20104;-75
2021/11/23 09:57:37;;;;;;;11.83;6.87;;;;;;;3.66;90.36;97302.84;5014609;28;20091;-74
2021/11/23 10:00:06;;;;;;;9.70;6.43;;;;;;;3.29;90.42;97296.34;5026001;28;20116;-75
2021/11/23 10:02:36;;;;;;;13.05;7.57;;;;;;;3.84;90.40;97292.28;5033155;28;20049;-75
2021/11/23 10:05:06;;;;;;;11.57;7.53;;;;;;;4.17;88.46;97289.41;5017521;28;20485;-75
2021/11/23 10:08:04;;;;;;;9.83;6.27;;;;;;;3.23;89.28;97281.09;5036366;28;20075;-75
2021/11/23 10:10:30;;;;;;;9.90;6.67;;;;;;;2.20;92.78;97286.78;5024356;28;20140;-75
2021/11/23 10:12:58;;;;;;;8.83;5.43;;;;;;;2.69;92.60;97291.09;5029083;28;20104;-75
2021/11/23 10:15:30;;;;;;;10.33;6.67;;;;;;;2.53;92.69;97289.31;5037371;28;20075;-75
2021/11/23 10:18:07;;;;;;;10.27;6.20;;;;;;;2.58;92.88;97284.72;4999204;28;20441;-75
2021/11/23 10:20:40;;;;;;;9.20;6.27;;;;;;;3.04;91.34;97284.72;5031768;28;20029;-75
2021/11/23 10:23:24;;;;;;;10.47;6.77;;;;;;;3.22;90.75;97275.06;5042645;28;20044;-75
2021/11/23 10:25:51;;;;;;;;;;;;;;;3.46;88.80;97272.81;5023892;28;20052;-75
2021/11/23 10:28:17;;;;;;;8.83;5.00;;;;;;;3.53;89.61;97271.50;5024585;28;19959;-75
2021/11/23 10:30:46;;;;;;;10.13;5.90;;;;;;;3.23;91.48;97273.31;5037624;28;20040;-75
2021/11/23 10:33:12;;;;;;;8.37;5.70;;;;;;;3.34;91.08;97267.47;5018248;28;20560;-75
2021/11/23 10:35:39;;;;;;;9.27;6.03;;;;;;;4.08;86.57;97269.13;5028996;28;20588;-75
2021/11/23 10:38:08;;;;;;;10.80;6.03;;;;;;;4.47;84.43;97261.47;5022449;28;20573;-75
2021/11/23 10:40:36;;;;;;;11.20;7.37;;;;;;;5.05;83.63;97262.09;5030297;28;20037;-75
2021/11/23 10:43:05;;;;;;;9.53;6.43;;;;;;;4.41;84.39;97258.41;5023058;28;20060;-76
2021/11/23 10:45:39;;;;;;;8.47;5.37;;;;;;;4.67;83.78;97261.97;5040478;28;20025;-75
2021/11/23 10:48:06;;;;;;;7.03;4.90;;;;;;;5.50;81.13;97257.41;5043777;28;20045;-75
2021/11/23 10:50:33;;;;;;;7.90;4.57;;;;;;;5.23;81.04;97254.88;5036047;28;20106;-75
2021/11/23 10:53:08;;;;;;;8.40;5.07;;;;;;;5.25;79.56;97257.38;5040737;28;20033;-75
2021/11/23 10:55:37;;;;;;;6.70;4.13;;;;;;;5.16;78.51;97253.56;5032136;28;20509;-75
2021/11/23 10:58:05;;;;;;;8.23;4.93;;;;;;;5.80;77.60;97256.25;5021577;28;20561;-75
2021/11/23 11:00:34;;;;;;;6.70;4.27;;;;;;;5.82;75.81;97257.00;5024045;28;20036;-74
2021/11/23 11:03:02;;;;;;;7.07;4.33;;;;;;;4.31;77.83;97258.13;5028823;28;20076;-75
2021/11/23 11:05:31;;;;;;;6.67;4.43;;;;;;;5.13;79.31;97251.16;5024105;28;20026;-75
2021/11/23 11:07:58;;;;;;;8.23;4.50;;;;;;;4.90;79.23;97257.91;5029004;28;20028;-75
2021/11/23 11:10:24;;;;;;;7.73;5.00;;;;;;;4.47;82.66;97258.84;5038389;28;20041;-75
2021/11/23 11:12:51;;;;;;;7.23;4.23;;;;;;;5.32;79.69;97249.03;5047157;28;20065;-75
2021/11/23 11:15:24;;;;;;;7.63;4.33;;;;;;;5.66;72.86;97242.38;5031353;28;20125;-75
2021/11/23 11:17:50;;;;;;;8.18;3.53;;;;;;;5.76;74.21;97244.38;5035200;28;20029;-75